sensor_id;sensor_type;location;lat;lon;timestamp;pressure;altitude;pressure_sealevel;temperature;humidity
20424;BME280;10371;49.042;8.002;2022-08-19T00:00:42;99438.59;;;20.26;100.00
20424;BME280;10371;49.042;8.002;2022-08-19T00:01:44;99442.03;;;20.26;100.00
20424;BME280;10371;49.042;8.002;2022-08-19T00:02:45;99441.81;;;20.28;100.00
20424;BME280;10371;49.042;8.002;2022-08-19T00:03:46;99447.09;;;20.28;100.00
20424;BME280;10371;49.042;8.002;2022-08-19T00:04:46;99441.00;;;20.27;100.00
20424;BME280;10371;49.042;8.002;2022-08-19T00:05:50;99444.69;;;20.26;100.00
20424;BME280;10371;49.042;8.002;2022-08-19T00:06:51;99446.28;;;20.27;100.00
20424;BME280;10371;49.042;8.002;2022-08-19T00:07:52;99443.88;;;20.26;100.00
20424;BME280;10371;49.042;8.002;2022-08-19T00:08:52;99436.94;;;20.25;100.00
20424;BME280;10371;49.042;8.002;2022-08-19T00:09:52;99439.56;;;20.25;100.00
20424;BME280;10371;49.042;8.002;2022-08-19T00:10:53;99442.84;;;20.27;100.00
20424;BME280;10371;49.042;8.002;2022-08-19T00:11:54;99445.47;;;20.27;100.00
20424;BME280;10371;49.042;8.002;2022-08-19T00:12:55;99436.94;;;20.25;100.00
20424;BME280;10371;49.042;8.002;2022-08-19T00:13:56;99442.03;;;20.26;100.00
20424;BME280;10371;49.042;8.002;2022-08-19T00:14:56;99445.25;;;20.22;100.00
20424;BME280;10371;49.042;8.002;2022-08-19T00:15:57;99446.91;;;20.23;100.00
20424;BME280;10371;49.042;8.002;2022-08-19T00:16:59;99453.81;;;20.24;100.00
20424;BME280;10371;49.042;8.002;2022-08-19T00:17:59;99445.06;;;20.23;100.00
20424;BME280;10371;49.042;8.002;2022-08-19T00:18:59;99444.25;;;20.23;100.00
20424;BME280;10371;49.042;8.002;2022-08-19T00:20:00;99447.09;;;20.21;100.00
20424;BME280;10371;49.042;8.002;2022-08-19T00:21:00;99448.09;;;20.20;100.00
20424;BME280;10371;49.042;8.002;2022-08-19T00:22:01;99458.06;;;20.25;100.00
20424;BME280;10371;49.042;8.002;2022-08-19T00:23:02;99453.00;;;20.23;100.00
20424;BME280;10371;49.042;8.002;2022-08-19T00:24:03;99447.91;;;20.22;100.00
20424;BME280;10371;49.042;8.002;2022-08-19T00:25:05;99453.00;;;20.23;100.00
20424;BME280;10371;49.042;8.002;2022-08-19T00:26:06;99455.44;;;20.25;100.00
20424;BME280;10371;49.042;8.002;2022-08-19T00:27:07;99449.53;;;20.23;100.00
20424;BME280;10371;49.042;8.002;2022-08-19T00:28:07;99443.41;;;20.22;100.00
20424;BME280;10371;49.042;8.002;2022-08-19T00:29:10;99445.88;;;20.24;100.00
20424;BME280;10371;49.042;8.002;2022-08-19T00:30:11;99446.91;;;20.23;100.00
20424;BME280;10371;49.042;8.002;2022-08-19T00:31:12;99438.97;;;20.23;100.00
20424;BME280;10371;49.042;8.002;2022-08-19T00:32:12;99443.41;;;20.22;100.00
20424;BME280;10371;49.042;8.002;2022-08-19T00:33:12;99430.41;;;20.21;100.00
20424;BME280;10371;49.042;8.002;2022-08-19T00:34:14;99427.94;;;20.19;100.00
20424;BME280;10371;49.042;8.002;2022-08-19T00:35:14;99413.31;;;20.17;100.00
20424;BME280;10371;49.042;8.002;2022-08-19T00:36:15;99420.41;;;20.16;100.00
20424;BME280;10371;49.042;8.002;2022-08-19T00:37:15;99413.69;;;20.14;100.00
20424;BME280;10371;49.042;8.002;2022-08-19T00:38:16;99421.63;;;20.14;100.00
20424;BME280;10371;49.042;8.002;2022-08-19T00:39:16;99426.09;;;20.13;100.00
20424;BME280;10371;49.042;8.002;2022-08-19T00:40:17;99425.47;;;20.11;100.00
20424;BME280;10371;49.042;8.002;2022-08-19T00:41:20;99426.50;;;20.10;100.00
20424;BME280;10371;49.042;8.002;2022-08-19T00:42:21;99429.94;;;20.11;100.00
20424;BME280;10371;49.042;8.002;2022-08-19T00:43:25;99423.03;;;20.09;100.00
20424;BME280;10371;49.042;8.002;2022-08-19T00:44:28;99425.06;;;20.07;100.00
20424;BME280;10371;49.042;8.002;2022-08-19T00:45:29;99425.06;;;20.07;100.00
20424;BME280;10371;49.042;8.002;2022-08-19T00:46:33;99430.09;;;20.02;100.00
20424;BME280;10371;49.042;8.002;2022-08-19T00:47:35;99431.34;;;20.06;100.00
20424;BME280;10371;49.042;8.002;2022-08-19T00:48:36;99431.53;;;20.05;100.00
20424;BME280;10371;49.042;8.002;2022-08-19T00:49:55;99442.13;;;20.05;100.00
20424;BME280;10371;49.042;8.002;2022-08-19T00:50:56;99442.31;;;20.03;100.00
20424;BME280;10371;49.042;8.002;2022-08-19T00:52:02;99439.06;;;20.01;100.00
20424;BME280;10371;49.042;8.002;2022-08-19T00:53:03;99441.69;;;20.01;100.00
20424;BME280;10371;49.042;8.002;2022-08-19T00:54:04;99442.72;;;20.00;100.00
20424;BME280;10371;49.042;8.002;2022-08-19T00:55:07;99438.81;;;19.96;100.00
20424;BME280;10371;49.042;8.002;2022-08-19T00:56:10;99438.81;;;19.96;100.00
20424;BME280;10371;49.042;8.002;2022-08-19T00:57:17;99442.47;;;19.95;100.00
20424;BME280;10371;49.042;8.002;2022-08-19T00:58:20;99432.31;;;19.92;100.00
20424;BME280;10371;49.042;8.002;2022-08-19T00:59:22;99428.22;;;19.90;100.00
20424;BME280;10371;49.042;8.002;2022-08-19T01:00:24;99422.09;;;19.89;100.00
20424;BME280;10371;49.042;8.002;2022-08-19T01:01:25;99424.13;;;19.87;100.00
20424;BME280;10371;49.042;8.002;2022-08-19T01:02:26;99426.94;;;19.85;100.00
20424;BME280;10371;49.042;8.002;2022-08-19T01:03:27;99419.84;;;19.86;100.00
20424;BME280;10371;49.042;8.002;2022-08-19T01:04:28;99419.03;;;19.85;100.00
20424;BME280;10371;49.042;8.002;2022-08-19T01:05:28;99414.75;;;19.84;100.00
20424;BME280;10371;49.042;8.002;2022-08-19T01:06:31;99420.06;;;19.84;100.00
20424;BME280;10371;49.042;8.002;2022-08-19T01:07:39;99418.59;;;19.82;100.00
20424;BME280;10371;49.042;8.002;2022-08-19T01:08:40;99421.88;;;19.84;100.00
20424;BME280;10371;49.042;8.002;2022-08-19T01:09:40;99427.75;;;19.86;100.00
20424;BME280;10371;49.042;8.002;2022-08-19T01:10:45;99426.56;;;19.89;100.00
20424;BME280;10371;49.042;8.002;2022-08-19T01:11:47;99429.59;;;19.85;100.00
20424;BME280;10371;49.042;8.002;2022-08-19T01:12:47;99436.31;;;19.88;100.00
20424;BME280;10371;49.042;8.002;2022-08-19T01:13:49;99439.34;;;19.85;100.00
20424;BME280;10371;49.042;8.002;2022-08-19T01:14:51;99443.22;;;19.89;100.00
20424;BME280;10371;49.042;8.002;2022-08-19T01:15:56;99446.72;;;19.90;100.00
20424;BME280;10371;49.042;8.002;2022-08-19T01:16:57;99446.50;;;19.91;100.00
20424;BME280;10371;49.042;8.002;2022-08-19T01:18:03;99441.22;;;19.91;100.00
20424;BME280;10371;49.042;8.002;2022-08-19T01:19:12;99445.69;;;19.91;100.00
20424;BME280;10371;49.042;8.002;2022-08-19T01:20:19;99442.25;;;19.90;100.00
20424;BME280;10371;49.042;8.002;2022-08-19T01:21:35;99443.84;;;19.91;100.00
20424;BME280;10371;49.042;8.002;2022-08-19T01:22:44;99452.41;;;19.93;100.00
20424;BME280;10371;49.042;8.002;2022-08-19T01:23:45;99439.59;;;19.90;100.00
20424;BME280;10371;49.042;8.002;2022-08-19T01:24:45;99455.06;;;19.93;100.00
20424;BME280;10371;49.042;8.002;2022-08-19T01:25:50;99441.22;;;19.91;100.00
20424;BME280;10371;49.042;8.002;2022-08-19T01:26:51;99452.41;;;19.93;100.00
20424;BME280;10371;49.042;8.002;2022-08-19T01:27:52;99448.16;;;19.92;100.00
20424;BME280;10371;49.042;8.002;2022-08-19T01:28:55;99455.88;;;19.94;100.00
20424;BME280;10371;49.042;8.002;2022-08-19T01:29:56;99450.78;;;19.92;100.00
20424;BME280;10371;49.042;8.002;2022-08-19T01:30:56;99445.50;;;19.92;100.00
20424;BME280;10371;49.042;8.002;2022-08-19T01:31:57;99441.22;;;19.91;100.00
20424;BME280;10371;49.042;8.002;2022-08-19T01:32:59;99446.50;;;19.91;100.00
20424;BME280;10371;49.042;8.002;2022-08-19T01:34:01;99443.84;;;19.91;100.00
20424;BME280;10371;49.042;8.002;2022-08-19T01:35:03;99443.22;;;19.89;100.00
20424;BME280;10371;49.042;8.002;2022-08-19T01:36:06;99443.03;;;19.91;100.00
20424;BME280;10371;49.042;8.002;2022-08-19T01:37:09;99441.22;;;19.91;100.00
20424;BME280;10371;49.042;8.002;2022-08-19T01:38:26;99436.94;;;19.90;100.00
20424;BME280;10371;49.042;8.002;2022-08-19T01:39:27;99437.13;;;19.89;100.00
20424;BME280;10371;49.042;8.002;2022-08-19T01:40:31;99445.69;;;19.91;100.00
20424;BME280;10371;49.042;8.002;2022-08-19T01:41:33;99444.88;;;19.90;100.00
20424;BME280;10371;49.042;8.002;2022-08-19T01:42:34;99438.78;;;19.90;100.00
20424;BME280;10371;49.042;8.002;2022-08-19T01:43:35;99444.88;;;19.90;100.00
20424;BME280;10371;49.042;8.002;2022-08-19T01:44:35;99444.88;;;19.90;100.00
20424;BME280;10371;49.042;8.002;2022-08-19T01:45:37;99448.50;;;19.89;100.00
20424;BME280;10371;49.042;8.002;2022-08-19T01:46:41;99450.16;;;19.90;100.00
20424;BME280;10371;49.042;8.002;2022-08-19T01:47:42;99444.25;;;19.88;100.00
20424;BME280;10371;49.042;8.002;2022-08-19T01:48:43;99448.50;;;19.89;100.00
20424;BME280;10371;49.042;8.002;2022-08-19T01:49:43;99453.78;;;19.89;100.00
20424;BME280;10371;49.042;8.002;2022-08-19T01:50:44;99443.63;;;19.86;100.00
20424;BME280;10371;49.042;8.002;2022-08-19T01:51:44;99456.66;;;19.88;100.00
20424;BME280;10371;49.042;8.002;2022-08-19T01:52:45;99453.19;;;19.87;100.00
20424;BME280;10371;49.042;8.002;2022-08-19T01:53:50;99455.03;;;19.86;100.00
20424;BME280;10371;49.042;8.002;2022-08-19T01:54:51;99459.47;;;19.86;100.00
20424;BME280;10371;49.042;8.002;2022-08-19T01:55:51;99455.84;;;19.87;100.00
20424;BME280;10371;49.042;8.002;2022-08-19T01:56:53;99457.84;;;19.85;100.00
20424;BME280;10371;49.042;8.002;2022-08-19T01:57:58;99466.59;;;19.85;100.00
20424;BME280;10371;49.042;8.002;2022-08-19T01:59:06;99468.41;;;19.85;100.00
20424;BME280;10371;49.042;8.002;2022-08-19T02:00:11;99463.53;;;19.82;100.00
20424;BME280;10371;49.042;8.002;2022-08-19T02:01:12;99457.59;;;19.80;100.00
20424;BME280;10371;49.042;8.002;2022-08-19T02:02:13;99454.97;;;19.80;100.00
20424;BME280;10371;49.042;8.002;2022-08-19T02:03:14;99461.50;;;19.84;100.00
20424;BME280;10371;49.042;8.002;2022-08-19T02:04:15;99461.69;;;19.82;100.00
20424;BME280;10371;49.042;8.002;2022-08-19T02:05:16;99460.66;;;19.83;100.00
20424;BME280;10371;49.042;8.002;2022-08-19T02:06:17;99461.50;;;19.84;100.00
20424;BME280;10371;49.042;8.002;2022-08-19T02:07:21;99456.22;;;19.84;100.00
20424;BME280;10371;49.042;8.002;2022-08-19T02:08:21;99452.94;;;19.82;100.00
20424;BME280;10371;49.042;8.002;2022-08-19T02:09:22;99446.03;;;19.81;100.00
20424;BME280;10371;49.042;8.002;2022-08-19T02:10:22;99440.56;;;19.82;100.00
20424;BME280;10371;49.042;8.002;2022-08-19T02:11:29;99442.38;;;19.82;100.00
20424;BME280;10371;49.042;8.002;2022-08-19T02:12:31;99443.41;;;19.81;100.00
20424;BME280;10371;49.042;8.002;2022-08-19T02:13:32;99443.41;;;19.81;100.00
20424;BME280;10371;49.042;8.002;2022-08-19T02:14:34;99446.03;;;19.81;100.00
20424;BME280;10371;49.042;8.002;2022-08-19T02:15:34;99451.34;;;19.81;100.00
20424;BME280;10371;49.042;8.002;2022-08-19T02:16:35;99446.03;;;19.81;100.00
20424;BME280;10371;49.042;8.002;2022-08-19T02:17:36;99440.94;;;19.79;100.00
20424;BME280;10371;49.042;8.002;2022-08-19T02:18:36;99448.88;;;19.79;100.00
20424;BME280;10371;49.042;8.002;2022-08-19T02:19:36;99449.69;;;19.80;100.00
20424;BME280;10371;49.042;8.002;2022-08-19T02:20:38;99454.97;;;19.80;100.00
20424;BME280;10371;49.042;8.002;2022-08-19T02:21:38;99449.88;;;19.78;100.00
20424;BME280;10371;49.042;8.002;2022-08-19T02:22:39;99455.78;;;19.80;100.00
20424;BME280;10371;49.042;8.002;2022-08-19T02:23:42;99446.41;;;19.78;100.00
20424;BME280;10371;49.042;8.002;2022-08-19T02:24:42;99450.88;;;19.77;100.00
20424;BME280;10371;49.042;8.002;2022-08-19T02:25:45;99451.69;;;19.78;100.00
20424;BME280;10371;49.042;8.002;2022-08-19T02:26:45;99451.09;;;19.76;100.00
20424;BME280;10371;49.042;8.002;2022-08-19T02:27:46;99453.72;;;19.76;100.00
20424;BME280;10371;49.042;8.002;2022-08-19T02:28:46;99442.13;;;19.77;100.00
20424;BME280;10371;49.042;8.002;2022-08-19T02:29:47;99448.44;;;19.76;100.00
20424;BME280;10371;49.042;8.002;2022-08-19T02:30:48;99443.34;;;19.74;100.00
20424;BME280;10371;49.042;8.002;2022-08-19T02:31:48;99444.78;;;19.77;100.00
20424;BME280;10371;49.042;8.002;2022-08-19T02:32:48;99445.81;;;19.76;100.00
20424;BME280;10371;49.042;8.002;2022-08-19T02:33:48;99448.22;;;19.77;100.00
20424;BME280;10371;49.042;8.002;2022-08-19T02:34:49;99445.81;;;19.76;100.00
20424;BME280;10371;49.042;8.002;2022-08-19T02:35:49;99446.78;;;19.75;100.00
20424;BME280;10371;49.042;8.002;2022-08-19T02:36:49;99444.16;;;19.75;100.00
20424;BME280;10371;49.042;8.002;2022-08-19T02:37:49;99435.63;;;19.73;100.00
20424;BME280;10371;49.042;8.002;2022-08-19T02:39:09;99448.00;;;19.72;100.00
20424;BME280;10371;49.042;8.002;2022-08-19T02:40:10;99447.19;;;19.72;100.00
20424;BME280;10371;49.042;8.002;2022-08-19T02:41:14;99446.56;;;19.70;100.00
20424;BME280;10371;49.042;8.002;2022-08-19T02:42:15;99446.56;;;19.70;100.00
20424;BME280;10371;49.042;8.002;2022-08-19T02:43:15;99449.00;;;19.71;100.00
20424;BME280;10371;49.042;8.002;2022-08-19T02:44:15;99449.22;;;19.70;100.00
20424;BME280;10371;49.042;8.002;2022-08-19T02:45:16;99443.47;;;19.66;100.00
20424;BME280;10371;49.042;8.002;2022-08-19T02:46:20;99446.94;;;19.67;100.00
20424;BME280;10371;49.042;8.002;2022-08-19T02:47:21;99440.22;;;19.64;100.00
20424;BME280;10371;49.042;8.002;2022-08-19T02:48:23;99451.22;;;19.68;100.00
20424;BME280;10371;49.042;8.002;2022-08-19T02:49:24;99448.59;;;19.68;100.00
20424;BME280;10371;49.042;8.002;2022-08-19T02:50:24;99447.28;;;19.63;100.00
20424;BME280;10371;49.042;8.002;2022-08-19T02:51:31;99451.59;;;19.64;100.00
20424;BME280;10371;49.042;8.002;2022-08-19T02:52:33;99454.41;;;19.63;100.00
20424;BME280;10371;49.042;8.002;2022-08-19T02:53:33;99454.59;;;19.61;100.00
20424;BME280;10371;49.042;8.002;2022-08-19T02:54:34;99453.41;;;19.64;100.00
20424;BME280;10371;49.042;8.002;2022-08-19T02:55:36;99453.41;;;19.64;100.00
20424;BME280;10371;49.042;8.002;2022-08-19T02:56:43;99450.94;;;19.62;100.00
20424;BME280;10371;49.042;8.002;2022-08-19T02:57:43;99455.22;;;19.63;100.00
20424;BME280;10371;49.042;8.002;2022-08-19T02:58:43;99452.56;;;19.63;100.00
20424;BME280;10371;49.042;8.002;2022-08-19T02:59:44;99445.84;;;19.61;100.00
20424;BME280;10371;49.042;8.002;2022-08-19T03:00:47;99450.31;;;19.60;100.00
20424;BME280;10371;49.042;8.002;2022-08-19T03:01:49;99446.88;;;19.60;100.00
20424;BME280;10371;49.042;8.002;2022-08-19T03:02:49;99446.88;;;19.60;100.00
20424;BME280;10371;49.042;8.002;2022-08-19T03:03:50;99438.94;;;19.60;100.00
20424;BME280;10371;49.042;8.002;2022-08-19T03:04:50;99441.41;;;19.61;100.00
20424;BME280;10371;49.042;8.002;2022-08-19T03:05:51;99443.41;;;19.59;100.00
20424;BME280;10371;49.042;8.002;2022-08-19T03:06:52;99439.50;;;19.55;100.00
20424;BME280;10371;49.042;8.002;2022-08-19T03:07:52;99440.69;;;19.53;100.00
20424;BME280;10371;49.042;8.002;2022-08-19T03:08:53;99448.63;;;19.53;100.00
20424;BME280;10371;49.042;8.002;2022-08-19T03:09:53;99441.94;;;19.50;100.00
20424;BME280;10371;49.042;8.002;2022-08-19T03:10:53;99451.47;;;19.51;100.00
20424;BME280;10371;49.042;8.002;2022-08-19T03:11:54;99453.31;;;19.51;100.00
20424;BME280;10371;49.042;8.002;2022-08-19T03:12:54;99459.66;;;19.56;100.00
20424;BME280;10371;49.042;8.002;2022-08-19T03:13:55;99460.84;;;19.54;100.00
20424;BME280;10371;49.042;8.002;2022-08-19T03:14:55;99458.63;;;19.57;100.00
20424;BME280;10371;49.042;8.002;2022-08-19T03:15:56;99455.16;;;19.57;100.00
20424;BME280;10371;49.042;8.002;2022-08-19T03:16:56;99457.59;;;19.58;100.00
20424;BME280;10371;49.042;8.002;2022-08-19T03:17:57;99458.44;;;19.59;100.00
20424;BME280;10371;49.042;8.002;2022-08-19T03:18:57;99452.97;;;19.60;100.00
20424;BME280;10371;49.042;8.002;2022-08-19T03:20:01;99449.69;;;19.58;100.00
20424;BME280;10371;49.042;8.002;2022-08-19T03:21:01;99449.31;;;19.61;100.00
20424;BME280;10371;49.042;8.002;2022-08-19T03:22:02;99447.88;;;19.59;100.00
20424;BME280;10371;49.042;8.002;2022-08-19T03:23:04;99444.41;;;19.58;100.00
20424;BME280;10371;49.042;8.002;2022-08-19T03:24:07;99450.31;;;19.60;100.00
20424;BME280;10371;49.042;8.002;2022-08-19T03:25:08;99448.31;;;19.62;100.00
20424;BME280;10371;49.042;8.002;2022-08-19T03:26:08;99445.41;;;19.57;100.00
20424;BME280;10371;49.042;8.002;2022-08-19T03:27:08;99448.88;;;19.58;100.00
20424;BME280;10371;49.042;8.002;2022-08-19T03:28:14;99451.72;;;19.56;100.00
20424;BME280;10371;49.042;8.002;2022-08-19T03:29:16;99453.56;;;19.56;100.00
20424;BME280;10371;49.042;8.002;2022-08-19T03:30:16;99452.72;;;19.55;100.00
20424;BME280;10371;49.042;8.002;2022-08-19T03:31:19;99439.72;;;19.54;100.00
20424;BME280;10371;49.042;8.002;2022-08-19T03:32:20;99445.16;;;19.52;100.00
20424;BME280;10371;49.042;8.002;2022-08-19T03:33:22;99449.47;;;19.53;100.00
20424;BME280;10371;49.042;8.002;2022-08-19T03:34:25;99453.31;;;19.51;100.00
20424;BME280;10371;49.042;8.002;2022-08-19T03:35:26;99454.50;;;19.48;100.00
20424;BME280;10371;49.042;8.002;2022-08-19T03:36:27;99458.59;;;19.51;100.00
20424;BME280;10371;49.042;8.002;2022-08-19T03:37:27;99450.84;;;19.49;100.00
20424;BME280;10371;49.042;8.002;2022-08-19T03:38:28;99452.84;;;19.47;100.00
20424;BME280;10371;49.042;8.002;2022-08-19T03:39:29;99452.25;;;19.45;100.00
20424;BME280;10371;49.042;8.002;2022-08-19T03:40:29;99448.59;;;19.46;100.00
20424;BME280;10371;49.042;8.002;2022-08-19T03:41:35;99454.69;;;19.47;100.00
20424;BME280;10371;49.042;8.002;2022-08-19T03:42:36;99446.72;;;19.40;100.00
20424;BME280;10371;49.042;8.002;2022-08-19T03:43:38;99445.94;;;19.46;100.00
20424;BME280;10371;49.042;8.002;2022-08-19T03:44:38;99453.88;;;19.46;100.00
20424;BME280;10371;49.042;8.002;2022-08-19T03:45:39;99452.84;;;19.47;100.00
20424;BME280;10371;49.042;8.002;2022-08-19T03:46:39;99457.13;;;19.48;100.00
20424;BME280;10371;49.042;8.002;2022-08-19T03:47:39;99453.31;;;19.51;100.00
20424;BME280;10371;49.042;8.002;2022-08-19T03:48:42;99452.09;;;19.53;100.00
20424;BME280;10371;49.042;8.002;2022-08-19T03:49:43;99456.78;;;19.58;100.00
20424;BME280;10371;49.042;8.002;2022-08-19T03:50:43;99448.69;;;19.59;100.00
20424;BME280;10371;49.042;8.002;2022-08-19T03:51:45;99458.44;;;19.59;100.00
20424;BME280;10371;49.042;8.002;2022-08-19T03:52:50;99453.75;;;19.61;100.00
20424;BME280;10371;49.042;8.002;2022-08-19T03:53:52;99448.69;;;19.59;100.00
20424;BME280;10371;49.042;8.002;2022-08-19T03:54:53;99450.53;;;19.59;100.00
20424;BME280;10371;49.042;8.002;2022-08-19T03:55:54;99447.50;;;19.62;100.00
20424;BME280;10371;49.042;8.002;2022-08-19T03:56:56;99449.56;;;19.67;100.00
20424;BME280;10371;49.042;8.002;2022-08-19T03:57:57;99449.41;;;19.68;100.00
20424;BME280;10371;49.042;8.002;2022-08-19T03:58:58;99450.06;;;19.77;100.00
20424;BME280;10371;49.042;8.002;2022-08-19T03:59:59;99448.69;;;19.81;100.00
20424;BME280;10371;49.042;8.002;2022-08-19T04:01:00;99442.13;;;19.77;100.00
20424;BME280;10371;49.042;8.002;2022-08-19T04:02:05;99456.41;;;19.82;100.00
20424;BME280;10371;49.042;8.002;2022-08-19T04:03:07;99452.75;;;19.83;100.00
20424;BME280;10371;49.042;8.002;2022-08-19T04:04:08;99459.28;;;19.88;100.00
20424;BME280;10371;49.042;8.002;2022-08-19T04:05:09;99449.91;;;19.85;100.00
20424;BME280;10371;49.042;8.002;2022-08-19T04:06:15;99447.28;;;19.85;100.00
20424;BME280;10371;49.042;8.002;2022-08-19T04:07:15;99453.19;;;19.87;100.00
20424;BME280;10371;49.042;8.002;2022-08-19T04:08:16;99452.97;;;19.89;100.00
20424;BME280;10371;49.042;8.002;2022-08-19T04:09:20;99455.06;;;19.93;100.00
20424;BME280;10371;49.042;8.002;2022-08-19T04:10:20;99450.78;;;19.92;99.80
20424;BME280;10371;49.042;8.002;2022-08-19T04:11:24;99446.34;;;19.99;99.11
20424;BME280;10371;49.042;8.002;2022-08-19T04:12:24;99456.53;;;20.02;97.82
20424;BME280;10371;49.042;8.002;2022-08-19T04:13:24;99455.94;;;20.00;98.65
20424;BME280;10371;49.042;8.002;2022-08-19T04:14:27;99457.31;;;19.96;98.37
20424;BME280;10371;49.042;8.002;2022-08-19T04:15:29;99451.22;;;19.96;99.26
20424;BME280;10371;49.042;8.002;2022-08-19T04:16:31;99455.69;;;19.95;99.86
20424;BME280;10371;49.042;8.002;2022-08-19T04:17:31;99453.84;;;19.96;99.10
20424;BME280;10371;49.042;8.002;2022-08-19T04:18:36;99465.88;;;19.98;98.54
20424;BME280;10371;49.042;8.002;2022-08-19T04:19:37;99468.94;;;20.02;97.77
20424;BME280;10371;49.042;8.002;2022-08-19T04:20:43;99459.97;;;20.03;97.40
20424;BME280;10371;49.042;8.002;2022-08-19T04:21:46;99470.38;;;20.04;97.35
20424;BME280;10371;49.042;8.002;2022-08-19T04:22:46;99467.97;;;20.09;96.89
20424;BME280;10371;49.042;8.002;2022-08-19T04:23:47;99473.44;;;20.08;97.08
20424;BME280;10371;49.042;8.002;2022-08-19T04:24:47;99467.56;;;20.06;97.26
20424;BME280;10371;49.042;8.002;2022-08-19T04:25:48;99472.63;;;20.07;97.09
20424;BME280;10371;49.042;8.002;2022-08-19T04:26:49;99475.47;;;20.06;97.29
20424;BME280;10371;49.042;8.002;2022-08-19T04:27:49;99472.84;;;20.06;96.90
20424;BME280;10371;49.042;8.002;2022-08-19T04:28:50;99471.00;;;20.06;97.18
20424;BME280;10371;49.042;8.002;2022-08-19T04:29:51;99465.25;;;20.03;97.74
20424;BME280;10371;49.042;8.002;2022-08-19T04:30:54;99471.00;;;20.06;97.69
20424;BME280;10371;49.042;8.002;2022-08-19T04:31:55;99467.72;;;20.04;97.82
20424;BME280;10371;49.042;8.002;2022-08-19T04:32:56;99469.34;;;20.05;97.50
20424;BME280;10371;49.042;8.002;2022-08-19T04:33:58;99467.72;;;20.04;97.50
20424;BME280;10371;49.042;8.002;2022-08-19T04:34:58;99469.56;;;20.04;97.96
20424;BME280;10371;49.042;8.002;2022-08-19T04:35:59;99461.81;;;20.02;98.10
20424;BME280;10371;49.042;8.002;2022-08-19T04:37:00;99466.09;;;20.03;97.59
20424;BME280;10371;49.042;8.002;2022-08-19T04:38:00;99458.56;;;20.00;97.50
20424;BME280;10371;49.042;8.002;2022-08-19T04:39:05;99461.63;;;20.04;97.55
20424;BME280;10371;49.042;8.002;2022-08-19T04:40:07;99461.81;;;20.02;97.70
20424;BME280;10371;49.042;8.002;2022-08-19T04:41:43;99461.22;;;20.00;98.17
20424;BME280;10371;49.042;8.002;2022-08-19T04:43:02;99460.38;;;20.00;98.47
20424;BME280;10371;49.042;8.002;2022-08-19T04:44:03;99461.41;;;19.99;98.45
20424;BME280;10371;49.042;8.002;2022-08-19T04:45:06;99463.84;;;20.00;98.35
20424;BME280;10371;49.042;8.002;2022-08-19T04:46:09;99461.22;;;20.00;98.71
20424;BME280;10371;49.042;8.002;2022-08-19T04:47:10;99464.84;;;19.99;98.42
20424;BME280;10371;49.042;8.002;2022-08-19T04:48:11;99472.59;;;20.01;98.20
20424;BME280;10371;49.042;8.002;2022-08-19T04:49:11;99467.31;;;20.01;98.61
20424;BME280;10371;49.042;8.002;2022-08-19T04:50:13;99475.25;;;20.01;97.83
20424;BME280;10371;49.042;8.002;2022-08-19T04:51:14;99475.25;;;20.01;98.27
20424;BME280;10371;49.042;8.002;2022-08-19T04:52:15;99475.03;;;20.02;98.76
20424;BME280;10371;49.042;8.002;2022-08-19T04:53:15;99471.78;;;20.00;98.56
20424;BME280;10371;49.042;8.002;2022-08-19T04:54:16;99479.50;;;20.02;98.76
20424;BME280;10371;49.042;8.002;2022-08-19T04:55:17;99482.56;;;20.05;99.18
20424;BME280;10371;49.042;8.002;2022-08-19T04:56:19;99479.13;;;20.05;98.94
20424;BME280;10371;49.042;8.002;2022-08-19T04:57:21;99482.56;;;20.05;98.77
20424;BME280;10371;49.042;8.002;2022-08-19T04:58:22;99470.56;;;20.03;98.52
20424;BME280;10371;49.042;8.002;2022-08-19T04:59:22;99474.25;;;20.08;98.13
20424;BME280;10371;49.042;8.002;2022-08-19T05:00:22;99476.53;;;20.12;98.25
20424;BME280;10371;49.042;8.002;2022-08-19T05:01:26;99478.16;;;20.13;97.83
20424;BME280;10371;49.042;8.002;2022-08-19T05:02:26;99468.59;;;20.12;97.47
20424;BME280;10371;49.042;8.002;2022-08-19T05:03:27;99470.22;;;20.13;97.06
20424;BME280;10371;49.042;8.002;2022-08-19T05:04:27;99469.41;;;20.12;96.90
20424;BME280;10371;49.042;8.002;2022-08-19T05:05:31;99477.75;;;20.16;97.09
20424;BME280;10371;49.042;8.002;2022-08-19T05:06:33;99482.66;;;20.19;97.09
20424;BME280;10371;49.042;8.002;2022-08-19T05:07:34;99483.28;;;20.21;96.81
20424;BME280;10371;49.042;8.002;2022-08-19T05:08:36;99482.06;;;20.23;96.26
20424;BME280;10371;49.042;8.002;2022-08-19T05:09:37;99492.44;;;20.25;96.36
20424;BME280;10371;49.042;8.002;2022-08-19T05:10:38;99489.41;;;20.28;95.95
20424;BME280;10371;49.042;8.002;2022-08-19T05:11:39;99493.69;;;20.29;96.30
20424;BME280;10371;49.042;8.002;2022-08-19T05:12:39;99493.94;;;20.34;96.75
20424;BME280;10371;49.042;8.002;2022-08-19T05:13:41;99502.06;;;20.39;96.99
20424;BME280;10371;49.042;8.002;2022-08-19T05:14:43;99498.44;;;20.40;96.00
20424;BME280;10371;49.042;8.002;2022-08-19T05:15:56;99506.59;;;20.45;95.39
20424;BME280;10371;49.042;8.002;2022-08-19T05:16:57;99509.84;;;20.47;95.15
20424;BME280;10371;49.042;8.002;2022-08-19T05:17:57;99514.41;;;20.53;94.81
20424;BME280;10371;49.042;8.002;2022-08-19T05:19:16;99507.31;;;20.61;94.83
20424;BME280;10371;49.042;8.002;2022-08-19T05:20:38;99508.75;;;20.63;94.43
20424;BME280;10371;49.042;8.002;2022-08-19T05:21:59;99515.88;;;20.69;94.17
20424;BME280;10371;49.042;8.002;2022-08-19T05:23:18;99514.28;;;20.75;93.88
20424;BME280;10371;49.042;8.002;2022-08-19T05:24:19;99509.63;;;20.84;93.57
20424;BME280;10371;49.042;8.002;2022-08-19T05:25:21;99516.97;;;20.88;93.13
20424;BME280;10371;49.042;8.002;2022-08-19T05:26:21;99511.09;;;20.93;92.84